Time;durP1;ratioP1;P1;durP2;ratioP2;P2;SDS_P1;SDS_P2;PMS_P1;PMS_P2;Temp;Humidity;BMP_temperature;BMP_pressure;BME280_temperature;BME280_humidity;BME280_pressure;Samples;Min_cycle;Max_cycle;Signal;HPM_P1;HPM_P2
2022/09/20 00:01:20;;;;;;;13.63;3.20;;;12.90;99.90;;;;;;4993189;28;20528;-68
2022/09/20 00:03:48;;;;;;;6.27;3.10;;;12.80;99.90;;;;;;4996558;28;20881;-68
2022/09/20 00:06:16;;;;;;;9.60;4.70;;;12.70;99.90;;;;;;4996815;28;20448;-68
2022/09/20 00:08:42;;;;;;;6.53;2.73;;;12.70;99.90;;;;;;4992114;28;20433;-68
2022/09/20 00:11:14;;;;;;;7.50;3.10;;;12.90;99.90;;;;;;4995214;28;20535;-68
2022/09/20 00:13:41;;;;;;;7.13;3.03;;;12.90;99.90;;;;;;4988396;28;20532;-68
2022/09/20 00:16:09;;;;;;;6.90;3.07;;;12.90;99.90;;;;;;4992387;28;21174;-68
2022/09/20 00:18:35;;;;;;;9.10;2.80;;;12.90;99.90;;;;;;4992500;28;20477;-68
2022/09/20 00:21:02;;;;;;;6.70;3.37;;;12.80;99.90;;;;;;4992943;28;20431;-69
2022/09/20 00:23:28;;;;;;;7.60;3.33;;;12.70;99.90;;;;;;4993256;28;20432;-68
2022/09/20 00:25:56;;;;;;;4.60;2.87;;;12.80;99.90;;;;;;4988829;28;20455;-68
2022/09/20 00:28:22;;;;;;;5.47;3.20;;;12.70;99.90;;;;;;4991482;28;20883;-67
2022/09/20 00:30:48;;;;;;;7.40;3.03;;;12.70;99.90;;;;;;4994520;28;20957;-67
2022/09/20 00:33:14;;;;;;;8.60;2.83;;;12.70;99.90;;;;;;4995882;28;20502;-69
2022/09/20 00:35:45;;;;;;;9.83;3.30;;;12.70;99.90;;;;;;4992480;28;20217;-68
2022/09/20 00:38:12;;;;;;;5.43;2.50;;;12.70;99.90;;;;;;4989796;28;20884;-68
2022/09/20 00:40:39;;;;;;;4.07;2.63;;;12.60;99.90;;;;;;4996083;28;20432;-69
2022/09/20 00:43:05;;;;;;;5.93;3.27;;;12.60;99.90;;;;;;4991857;28;21059;-69
2022/09/20 00:45:30;;;;;;;3.60;2.60;;;12.60;99.90;;;;;;4992716;28;20583;-69
2022/09/20 00:48:20;;;;;;;5.97;3.80;;;12.70;99.90;;;;;;4995202;28;20212;-68
2022/09/20 00:50:52;;;;;;;4.80;2.80;;;12.60;99.90;;;;;;4991974;28;20200;-67
2022/09/20 00:53:23;;;;;;;6.00;2.63;;;12.70;99.90;;;;;;4990663;28;20428;-68
2022/09/20 00:56:01;;;;;;;4.87;2.20;;;12.70;99.90;;;;;;4990401;28;20571;-69
2022/09/20 00:58:29;;;;;;;5.30;2.33;;;12.80;99.90;;;;;;4993753;28;20843;-68
2022/09/20 01:00:56;;;;;;;6.27;2.47;;;12.70;99.90;;;;;;4993038;28;20463;-68
2022/09/20 01:03:25;;;;;;;4.77;2.80;;;12.60;99.90;;;;;;4993248;28;20439;-68
2022/09/20 01:05:52;;;;;;;5.30;2.93;;;12.60;99.90;;;;;;4992349;28;20460;-67
2022/09/20 01:08:20;;;;;;;6.90;2.63;;;12.50;99.90;;;;;;4993110;28;20498;-67
2022/09/20 01:10:46;;;;;;;4.67;3.00;;;12.40;99.90;;;;;;4990765;28;20451;-67
2022/09/20 01:13:11;;;;;;;8.30;2.70;;;12.40;99.90;;;;;;4993237;28;20423;-68
2022/09/20 01:15:39;;;;;;;6.33;3.03;;;12.50;99.90;;;;;;4994222;28;20316;-67
2022/09/20 01:18:08;;;;;;;5.63;2.40;;;12.40;99.90;;;;;;4994719;28;20681;-66
2022/09/20 01:20:39;;;;;;;7.03;2.87;;;12.30;99.90;;;;;;4995714;28;20432;-67
2022/09/20 01:23:37;;;;;;;7.00;2.80;;;12.30;99.90;;;;;;4973894;28;20450;-69
2022/09/20 01:26:41;;;;;;;4.60;2.80;;;12.20;99.90;;;;;;4991889;28;20892;-70
2022/09/20 01:29:18;;;;;;;7.13;3.07;;;12.30;99.90;;;;;;4989456;28;20440;-69
2022/09/20 01:31:53;;;;;;;6.13;2.50;;;12.30;99.90;;;;;;4991651;28;20436;-70
2022/09/20 01:34:35;;;;;;;7.93;3.37;;;12.40;99.90;;;;;;4996643;28;20969;-69
2022/09/20 01:37:08;;;;;;;7.37;2.50;;;12.30;99.90;;;;;;4993134;28;20440;-68
2022/09/20 01:39:53;;;;;;;5.43;2.50;;;12.20;99.90;;;;;;4996828;28;20436;-67
2022/09/20 01:42:26;;;;;;;7.00;2.87;;;12.30;99.90;;;;;;4995472;28;20441;-68
2022/09/20 01:45:13;;;;;;;4.93;2.93;;;12.30;99.90;;;;;;4996067;28;20464;-69
2022/09/20 01:48:17;;;;;;;6.93;2.93;;;12.30;99.90;;;;;;4998868;28;20450;-69
2022/09/20 01:51:04;;;;;;;3.73;2.57;;;12.30;99.90;;;;;;4995457;28;20498;-67
2022/09/20 01:53:44;;;;;;;9.50;3.37;;;12.20;99.90;;;;;;4995380;28;20445;-67
2022/09/20 01:56:29;;;;;;;3.90;2.53;;;12.30;99.90;;;;;;4995220;28;21017;-67
2022/09/20 01:59:15;;;;;;;8.40;2.90;;;12.30;99.90;;;;;;4995613;28;21029;-67
2022/09/20 02:02:21;;;;;;;5.70;2.50;;;12.30;99.90;;;;;;4993070;28;20525;-68
2022/09/20 02:05:15;;;;;;;7.27;3.13;;;12.30;99.90;;;;;;4994817;28;20460;-67
2022/09/20 02:07:58;;;;;;;9.00;2.80;;;12.20;99.90;;;;;;4997585;28;20435;-68
2022/09/20 02:10:33;;;;;;;6.70;2.70;;;12.20;99.90;;;;;;4992400;28;20498;-67
2022/09/20 02:13:17;;;;;;;12.63;2.70;;;12.20;99.90;;;;;;4997080;28;20925;-69
2022/09/20 02:16:25;;;;;;;6.57;2.90;;;12.10;99.90;;;;;;4995448;28;20480;-68
2022/09/20 02:19:36;;;;;;;5.07;2.57;;;12.20;99.90;;;;;;4978181;28;20443;-68
2022/09/20 02:22:26;;;;;;;7.10;2.63;;;12.20;99.90;;;;;;4995658;28;20442;-68
2022/09/20 02:25:13;;;;;;;5.17;2.80;;;12.20;99.90;;;;;;4996333;28;20900;-68
2022/09/20 02:27:46;;;;;;;5.50;2.53;;;12.20;99.90;;;;;;4996085;28;20440;-68
2022/09/20 02:30:17;;;;;;;6.03;2.60;;;12.20;99.90;;;;;;4993663;28;20448;-70
2022/09/20 02:33:01;;;;;;;4.03;2.50;;;12.30;99.90;;;;;;4994786;28;20443;-69
2022/09/20 02:35:45;;;;;;;6.97;2.47;;;12.30;99.90;;;;;;4995073;28;20476;-68
2022/09/20 02:38:25;;;;;;;6.27;2.80;;;12.30;99.90;;;;;;4998327;28;20487;-68
2022/09/20 02:41:28;;;;;;;4.17;2.30;;;12.30;99.90;;;;;;4994004;28;20643;-68
2022/09/20 02:44:19;;;;;;;9.60;2.90;;;12.30;99.90;;;;;;4992981;28;20842;-68
2022/09/20 02:47:13;;;;;;;5.13;2.47;;;12.30;99.90;;;;;;4994137;28;20825;-68
2022/09/20 02:50:05;;;;;;;6.70;2.63;;;12.30;99.90;;;;;;4996997;28;20436;-68
2022/09/20 02:53:08;;;;;;;4.90;2.67;;;12.40;99.90;;;;;;4994161;28;20482;-67
2022/09/20 02:55:46;;;;;;;3.37;2.60;;;12.50;99.90;;;;;;4996607;28;20475;-68
2022/09/20 02:58:14;;;;;;;5.20;3.07;;;12.50;99.90;;;;;;4996611;28;20946;-69
2022/09/20 03:01:23;;;;;;;5.53;2.53;;;12.50;99.90;;;;;;4995390;28;20464;-67
2022/09/20 03:03:52;;;;;;;10.93;3.23;;;12.50;99.90;;;;;;4992419;28;20476;-68
2022/09/20 03:06:23;;;;;;;7.80;2.60;;;12.50;99.90;;;;;;4994133;28;21544;-67
2022/09/20 03:09:21;;;;;;;4.93;2.63;;;12.50;99.90;;;;;;4998807;28;20471;-67
2022/09/20 03:12:13;;;;;;;7.10;2.97;;;12.50;99.90;;;;;;4997978;28;20455;-68
2022/09/20 03:14:42;;;;;;;7.10;2.60;;;12.50;99.90;;;;;;4994166;28;20473;-67
2022/09/20 03:17:31;;;;;;;4.37;2.67;;;12.60;99.90;;;;;;4994867;28;20454;-68
2022/09/20 03:20:16;;;;;;;6.70;2.70;;;12.60;99.90;;;;;;4996669;28;20494;-67
2022/09/20 03:23:06;;;;;;;3.40;2.70;;;12.60;99.90;;;;;;4992701;28;20433;-67
2022/09/20 03:25:56;;;;;;;3.37;2.57;;;12.50;99.90;;;;;;4997207;28;20544;-68
2022/09/20 03:28:44;;;;;;;9.10;3.00;;;12.50;99.90;;;;;;4994860;28;20792;-68
2022/09/20 03:31:37;;;;;;;6.77;2.93;;;12.50;99.90;;;;;;4994202;28;20441;-67
2022/09/20 03:34:27;;;;;;;4.57;2.73;;;12.50;99.90;;;;;;4996711;28;20818;-68
2022/09/20 03:37:19;;;;;;;6.37;3.10;;;12.50;99.90;;;;;;4992123;28;20437;-68
2022/09/20 03:39:53;;;;;;;7.73;2.50;;;12.40;99.90;;;;;;4994447;28;20814;-68
2022/09/20 03:42:24;;;;;;;6.13;3.33;;;12.50;99.90;;;;;;4973477;28;20429;-68
2022/09/20 03:45:05;;;;;;;5.50;2.70;;;12.50;99.90;;;;;;4990633;28;20550;-67
2022/09/20 03:47:43;;;;;;;5.77;2.80;;;12.50;99.90;;;;;;4992442;28;21025;-69
2022/09/20 03:50:25;;;;;;;7.90;2.70;;;12.50;99.90;;;;;;4994395;28;20847;-69
2022/09/20 03:53:17;;;;;;;6.80;3.40;;;12.60;99.90;;;;;;4992460;28;20844;-69
2022/09/20 03:56:14;;;;;;;6.90;3.20;;;12.50;99.90;;;;;;4996153;28;20526;-68
2022/09/20 03:58:45;;;;;;;5.83;2.93;;;12.50;99.90;;;;;;4994704;28;20456;-69
2022/09/20 04:01:28;;;;;;;6.80;3.03;;;12.70;99.90;;;;;;4972963;28;20436;-69
2022/09/20 04:04:12;;;;;;;8.00;2.70;;;12.60;99.90;;;;;;4996416;28;20501;-69
2022/09/20 04:06:52;;;;;;;3.53;2.80;;;12.60;99.90;;;;;;4992134;28;20428;-69
2022/09/20 04:09:33;;;;;;;6.20;2.87;;;12.50;99.90;;;;;;4992870;28;20431;-68
2022/09/20 04:12:18;;;;;;;5.90;2.90;;;12.50;99.90;;;;;;4994551;28;21419;-69
2022/09/20 04:15:16;;;;;;;3.47;2.77;;;12.50;99.90;;;;;;4974324;28;20859;-68
2022/09/20 04:18:07;;;;;;;5.20;2.87;;;12.40;99.90;;;;;;4995167;28;20999;-68
2022/09/20 04:20:37;;;;;;;6.37;2.90;;;12.30;99.90;;;;;;4992779;28;20444;-68
2022/09/20 04:23:31;;;;;;;3.30;2.60;;;12.40;99.90;;;;;;4995419;28;20432;-68
2022/09/20 04:26:00;;;;;;;10.13;3.00;;;12.40;99.90;;;;;;4992898;28;20460;-68
2022/09/20 04:28:40;;;;;;;6.27;3.40;;;12.40;99.90;;;;;;4994387;28;20912;-68
2022/09/20 04:31:30;;;;;;;5.20;3.00;;;12.40;99.90;;;;;;4978957;28;20451;-69
2022/09/20 04:33:59;;;;;;;5.93;3.00;;;12.30;99.90;;;;;;4993159;28;20815;-68
2022/09/20 04:36:49;;;;;;;6.83;2.90;;;12.40;99.90;;;;;;4990456;28;20464;-68
2022/09/20 04:39:48;;;;;;;5.00;2.97;;;12.40;99.90;;;;;;4995098;28;20468;-68
2022/09/20 04:42:41;;;;;;;7.63;3.50;;;12.30;99.90;;;;;;4992412;28;20621;-67
2022/09/20 04:45:19;;;;;;;5.17;3.00;;;12.20;99.90;;;;;;4988618;28;20453;-68
2022/09/20 04:48:20;;;;;;;9.07;3.23;;;12.30;99.90;;;;;;4992178;28;20443;-68
2022/09/20 04:51:23;;;;;;;4.97;2.77;;;12.20;99.90;;;;;;4991037;28;20439;-69
2022/09/20 04:54:21;;;;;;;3.93;2.67;;;12.20;99.90;;;;;;4991679;28;20448;-69
2022/09/20 04:57:02;;;;;;;5.83;3.13;;;12.20;99.90;;;;;;4991945;28;20444;-68
2022/09/20 04:59:34;;;;;;;9.73;3.00;;;12.10;99.90;;;;;;4995767;28;20847;-69
2022/09/20 05:02:10;;;;;;;5.07;3.53;;;12.10;99.90;;;;;;4993434;28;20581;-69
2022/09/20 05:05:02;;;;;;;4.40;2.70;;;12.00;99.90;;;;;;4991502;28;20463;-69
2022/09/20 05:07:57;;;;;;;11.67;3.07;;;12.00;99.90;;;;;;4995617;28;20423;-69
2022/09/20 05:10:57;;;;;;;8.40;2.87;;;11.90;99.90;;;;;;4995950;28;20970;-69
2022/09/20 05:13:33;;;;;;;7.00;3.60;;;12.00;99.90;;;;;;4994454;28;20514;-68
2022/09/20 05:16:33;;;;;;;5.00;3.17;;;12.10;99.90;;;;;;4997368;28;20467;-68
2022/09/20 05:19:25;;;;;;;8.40;2.97;;;12.10;99.90;;;;;;4994823;28;21118;-68
2022/09/20 05:22:12;;;;;;;7.27;3.50;;;12.00;99.90;;;;;;4986237;28;21165;-68
2022/09/20 05:24:45;;;;;;;7.20;3.07;;;12.00;99.90;;;;;;4992400;28;20455;-68
2022/09/20 05:27:44;;;;;;;8.23;3.33;;;12.00;99.90;;;;;;4995431;28;20433;-67
2022/09/20 05:30:16;;;;;;;7.60;3.77;;;12.00;99.90;;;;;;4974909;28;20506;-67
2022/09/20 05:32:45;;;;;;;8.70;3.53;;;12.00;99.90;;;;;;4993602;28;20475;-67
2022/09/20 05:35:31;;;;;;;7.20;2.97;;;12.00;99.90;;;;;;4992223;28;20473;-67
2022/09/20 05:38:15;;;;;;;9.80;3.10;;;12.00;99.90;;;;;;4994914;28;20447;-67
2022/09/20 05:41:30;;;;;;;7.57;3.10;;;11.90;99.90;;;;;;4991282;28;20518;-67
2022/09/20 05:44:20;;;;;;;6.70;2.93;;;12.00;99.90;;;;;;4928620;28;20535;-68
2022/09/20 05:47:15;;;;;;;4.93;3.00;;;12.10;99.90;;;;;;4976415;28;20437;-69
2022/09/20 05:50:15;;;;;;;4.93;3.50;;;12.10;99.90;;;;;;4995157;28;20427;-69
2022/09/20 05:53:14;;;;;;;5.67;2.33;;;12.10;99.90;;;;;;4993691;28;20447;-68
2022/09/20 05:56:01;;;;;;;5.40;2.63;;;12.00;99.90;;;;;;4992964;28;20890;-68
2022/09/20 05:58:51;;;;;;;5.13;3.47;;;12.00;99.90;;;;;;4993734;28;20432;-67
2022/09/20 06:01:32;;;;;;;5.80;3.00;;;12.10;99.90;;;;;;4991266;28;20459;-69
2022/09/20 06:04:20;;;;;;;11.80;3.40;;;12.00;99.90;;;;;;4998390;28;20420;-69
2022/09/20 06:07:24;;;;;;;7.60;3.50;;;12.00;99.90;;;;;;4993880;28;20440;-69
2022/09/20 06:10:15;;;;;;;11.90;2.60;;;12.00;99.90;;;;;;4990847;28;20464;-68
2022/09/20 06:13:08;;;;;;;4.20;3.00;;;12.20;99.90;;;;;;4991686;28;20511;-69
2022/09/20 06:15:56;;;;;;;5.77;3.27;;;12.10;99.90;;;;;;4995844;28;20603;-69
2022/09/20 06:18:32;;;;;;;6.90;3.10;;;12.10;99.90;;;;;;4990344;28;20444;-68
2022/09/20 06:21:06;;;;;;;5.33;2.73;;;12.20;99.90;;;;;;4995172;28;20428;-68
2022/09/20 06:23:34;;;;;;;8.87;3.23;;;12.30;99.90;;;;;;4993610;28;20443;-69
2022/09/20 06:26:13;;;;;;;8.23;3.20;;;12.30;99.90;;;;;;4998104;28;20456;-69
2022/09/20 06:28:43;;;;;;;8.47;3.20;;;12.30;99.90;;;;;;4997077;28;20434;-68
2022/09/20 06:31:10;;;;;;;7.17;3.83;;;12.30;99.90;;;;;;4975664;28;20547;-68
2022/09/20 06:34:06;;;;;;;8.73;3.83;;;12.50;99.90;;;;;;4995669;28;20461;-68
2022/09/20 06:42:28;;;;;;;7.97;3.23;;;12.60;99.90;;;;;;4998633;28;20451;-67
2022/09/20 06:44:54;;;;;;;4.40;2.80;;;12.70;99.90;;;;;;4995625;28;20829;-67
2022/09/20 06:47:21;;;;;;;8.97;3.33;;;12.70;99.90;;;;;;4996397;28;20512;-68
2022/09/20 06:49:49;;;;;;;7.03;3.33;;;12.80;99.90;;;;;;4997943;28;20440;-68
2022/09/20 06:52:17;;;;;;;6.23;3.23;;;12.80;99.90;;;;;;4999280;28;20433;-68
2022/09/20 06:54:44;;;;;;;8.30;3.40;;;12.70;99.90;;;;;;4996841;28;20471;-68
2022/09/20 06:57:17;;;;;;;8.60;3.23;;;12.90;99.90;;;;;;4998797;28;20421;-67
2022/09/20 06:59:42;;;;;;;5.60;3.17;;;12.90;99.90;;;;;;5000654;28;20440;-68
2022/09/20 07:02:09;;;;;;;6.37;3.07;;;13.00;99.90;;;;;;4998924;28;20441;-69
2022/09/20 07:04:35;;;;;;;4.90;3.00;;;13.10;99.90;;;;;;4994992;28;20197;-69
2022/09/20 07:07:02;;;;;;;9.53;3.40;;;13.10;99.90;;;;;;4996688;28;21026;-68
2022/09/20 07:09:28;;;;;;;6.60;3.63;;;13.10;99.90;;;;;;4999263;28;20200;-68
2022/09/20 07:11:54;;;;;;;7.60;3.47;;;13.10;99.90;;;;;;4997561;28;20813;-68
2022/09/20 07:14:21;;;;;;;11.80;3.50;;;13.30;99.90;;;;;;4994700;28;20186;-69
2022/09/20 07:16:47;;;;;;;9.90;4.20;;;13.30;99.90;;;;;;4999232;28;20451;-68
2022/09/20 07:19:13;;;;;;;9.83;3.50;;;13.20;99.90;;;;;;4998175;28;20437;-68
2022/09/20 07:21:38;;;;;;;9.43;4.00;;;13.30;99.90;;;;;;4999205;28;20391;-68
2022/09/20 07:24:04;;;;;;;8.20;3.87;;;13.30;99.90;;;;;;4995117;28;20192;-68
2022/09/20 07:26:30;;;;;;;7.30;3.70;;;13.30;99.90;;;;;;5000200;28;20209;-68
2022/09/20 07:28:56;;;;;;;6.20;3.33;;;13.30;99.90;;;;;;4995837;28;20199;-68
2022/09/20 07:31:24;;;;;;;10.03;3.70;;;13.30;99.90;;;;;;4990496;28;21347;-68
2022/09/20 07:33:50;;;;;;;7.10;3.70;;;13.20;99.90;;;;;;4991852;28;20469;-69
2022/09/20 07:36:16;;;;;;;5.30;3.07;;;13.20;99.90;;;;;;4992910;28;20515;-68
2022/09/20 07:38:45;;;;;;;5.43;3.53;;;13.10;99.90;;;;;;4997630;28;20456;-68
2022/09/20 07:41:11;;;;;;;11.53;3.70;;;13.10;99.90;;;;;;4974415;28;20660;-68
2022/09/20 07:43:37;;;;;;;9.40;2.90;;;13.20;99.90;;;;;;4981362;28;20459;-68
2022/09/20 07:46:03;;;;;;;5.50;3.40;;;13.30;99.90;;;;;;4996038;28;20213;-68
2022/09/20 07:48:32;;;;;;;6.50;3.67;;;13.20;99.90;;;;;;4994306;28;20440;-68
2022/09/20 07:51:03;;;;;;;6.60;2.80;;;13.30;99.90;;;;;;4994395;28;20448;-68
2022/09/20 07:53:29;;;;;;;5.63;4.03;;;13.30;99.90;;;;;;4995316;28;20468;-68
2022/09/20 07:56:17;;;;;;;7.07;3.30;;;13.40;99.90;;;;;;4998227;28;20503;-68
2022/09/20 07:58:43;;;;;;;7.30;3.20;;;13.40;99.90;;;;;;4996250;28;21143;-68
2022/09/20 08:01:12;;;;;;;6.53;2.63;;;13.40;99.90;;;;;;4999148;28;20851;-68
2022/09/20 08:03:38;;;;;;;5.47;3.00;;;13.50;99.90;;;;;;4993756;28;20887;-67
2022/09/20 08:06:06;;;;;;;3.20;2.60;;;13.60;99.90;;;;;;4997260;28;20908;-70
2022/09/20 08:08:33;;;;;;;4.73;2.60;;;13.60;99.90;;;;;;4995949;28;20429;-69
2022/09/20 08:11:05;;;;;;;5.43;2.83;;;13.70;99.90;;;;;;4997210;28;20524;-68
2022/09/20 08:13:38;;;;;;;5.27;2.80;;;13.70;99.90;;;;;;4994543;28;20432;-69
2022/09/20 08:16:06;;;;;;;7.10;3.60;;;13.80;99.90;;;;;;4998266;28;20484;-69
2022/09/20 08:18:33;;;;;;;8.13;3.17;;;13.80;99.90;;;;;;4991870;28;20933;-69
2022/09/20 08:21:09;;;;;;;4.93;2.60;;;13.90;99.90;;;;;;4998141;28;20428;-68
2022/09/20 08:23:42;;;;;;;7.70;2.90;;;14.10;99.90;;;;;;4997367;28;20434;-69
2022/09/20 08:26:11;;;;;;;9.27;3.20;;;14.20;99.90;;;;;;4993990;28;20455;-69
2022/09/20 08:28:37;;;;;;;9.23;2.70;;;14.20;99.90;;;;;;4991727;28;20435;-68
2022/09/20 08:31:04;;;;;;;5.67;2.80;;;14.30;99.90;;;;;;4993921;28;20667;-68
2022/09/20 08:33:30;;;;;;;5.20;3.10;;;14.30;99.90;;;;;;4995966;28;20441;-68
2022/09/20 08:35:55;;;;;;;8.33;3.80;;;14.40;99.90;;;;;;4990078;28;20472;-69
2022/09/20 08:38:25;;;;;;;9.57;3.40;;;14.50;99.90;;;;;;4995109;28;20248;-68
2022/09/20 08:40:58;;;;;;;7.90;2.90;;;14.60;99.90;;;;;;4996440;28;20181;-68
2022/09/20 08:43:28;;;;;;;5.47;2.60;;;14.70;99.90;;;;;;4994548;28;20420;-68
2022/09/20 08:45:57;;;;;;;5.20;2.83;;;14.90;99.90;;;;;;4992940;28;20468;-68
2022/09/20 08:48:28;;;;;;;6.07;2.60;;;15.10;99.90;;;;;;4995320;28;20431;-68
2022/09/20 08:50:53;;;;;;;16.13;2.90;;;15.20;99.90;;;;;;4982435;28;20953;-69
2022/09/20 08:53:19;;;;;;;5.63;3.50;;;15.20;99.90;;;;;;4993417;28;20436;-69
2022/09/20 08:55:45;;;;;;;7.13;2.90;;;15.20;99.90;;;;;;4995429;28;20229;-67
2022/09/20 08:58:13;;;;;;;6.73;2.73;;;15.30;99.90;;;;;;4992697;28;20178;-68
2022/09/20 09:00:39;;;;;;;6.43;2.70;;;15.50;99.90;;;;;;4994387;28;20417;-68
2022/09/20 09:03:10;;;;;;;5.20;2.57;;;15.30;99.90;;;;;;4994121;28;20420;-68
2022/09/20 09:05:51;;;;;;;6.60;2.97;;;15.40;99.90;;;;;;4993943;28;20511;-68
2022/09/20 09:08:32;;;;;;;4.00;2.77;;;15.30;99.90;;;;;;4995263;28;20432;-67
2022/09/20 09:11:08;;;;;;;8.33;2.77;;;15.30;99.90;;;;;;4994488;28;20956;-67
2022/09/20 09:13:50;;;;;;;4.20;2.67;;;15.30;99.90;;;;;;4995099;28;20451;-67
2022/09/20 09:16:18;;;;;;;5.30;2.80;;;15.20;99.90;;;;;;4994923;28;20464;-69
2022/09/20 09:18:45;;;;;;;8.97;2.73;;;15.10;99.90;;;;;;4995904;28;20425;-68
2022/09/20 09:21:30;;;;;;;6.50;2.70;;;15.20;99.90;;;;;;4997631;28;20509;-68
2022/09/20 09:24:12;;;;;;;8.20;2.40;;;15.20;99.90;;;;;;4993299;28;20478;-68
2022/09/20 09:26:39;;;;;;;7.33;2.40;;;15.30;99.90;;;;;;4998119;28;20435;-68
2022/09/20 09:29:16;;;;;;;7.97;2.40;;;15.50;99.90;;;;;;4995827;28;20447;-69
2022/09/20 09:31:43;;;;;;;9.03;2.37;;;15.60;99.90;;;;;;4996244;28;20938;-69
2022/09/20 09:34:27;;;;;;;7.07;2.10;;;15.60;99.90;;;;;;4995210;28;20432;-67
2022/09/20 09:36:54;;;;;;;4.80;2.70;;;15.80;99.90;;;;;;4991427;28;20436;-66
2022/09/20 09:39:27;;;;;;;6.30;2.87;;;16.00;99.90;;;;;;4995875;28;20439;-66
2022/09/20 09:41:53;;;;;;;4.90;2.43;;;16.10;99.90;;;;;;4991413;28;20429;-67
2022/09/20 09:44:23;;;;;;;11.67;2.93;;;16.20;99.90;;;;;;4993619;28;20436;-67
2022/09/20 09:46:50;;;;;;;5.23;2.70;;;16.30;99.90;;;;;;4996204;28;20189;-69
2022/09/20 09:49:24;;;;;;;6.77;2.50;;;16.30;99.90;;;;;;4994196;28;20485;-67
2022/09/20 09:52:13;;;;;;;5.70;2.20;;;16.30;99.90;;;;;;4992692;28;20437;-67
2022/09/20 09:54:50;;;;;;;6.50;2.33;;;16.30;99.90;;;;;;4993773;28;21167;-68
2022/09/20 09:57:45;;;;;;;10.87;2.47;;;16.40;99.90;;;;;;4995935;28;20424;-68
2022/09/20 10:00:18;;;;;;;8.70;2.80;;;16.50;99.90;;;;;;4996097;28;20420;-67
2022/09/20 10:03:06;;;;;;;5.43;2.33;;;16.50;99.90;;;;;;4997850;28;20441;-67
2022/09/20 10:05:34;;;;;;;14.20;2.97;;;16.50;99.90;;;;;;4997593;28;20811;-67
2022/09/20 10:08:26;;;;;;;4.23;2.20;;;16.60;99.90;;;;;;4994113;28;20423;-67
2022/09/20 10:11:39;;;;;;;4.90;2.53;;;16.70;99.90;;;;;;4995614;28;20862;-68
2022/09/20 10:14:19;;;;;;;5.60;2.40;;;16.90;99.90;;;;;;4901495;29;20462;-67
2022/09/20 10:17:03;;;;;;;5.40;2.53;;;16.90;99.90;;;;;;4994688;28;20892;-68
2022/09/20 10:19:54;;;;;;;4.57;2.30;;;17.00;99.90;;;;;;4999022;28;20424;-67
2022/09/20 10:22:36;;;;;;;7.77;2.50;;;17.20;99.90;;;;;;4960441;28;20472;-67
2022/09/20 10:25:56;;;;;;;8.73;3.23;;;17.30;99.90;;;;;;4995739;28;20764;-67
2022/09/20 10:28:22;;;;;;;7.77;2.47;;;17.50;99.90;;;;;;4920920;29;20451;-67
2022/09/20 10:31:29;;;;;;;5.20;2.80;;;17.60;99.90;;;;;;4991751;28;20452;-67
2022/09/20 10:33:58;;;;;;;4.63;2.00;;;17.70;99.90;;;;;;4996271;28;20654;-67
2022/09/20 10:36:48;;;;;;;11.47;7.33;;;17.80;99.90;;;;;;4997919;28;20464;-67
2022/09/20 10:39:30;;;;;;;10.07;3.37;;;17.90;99.90;;;;;;4996244;28;20436;-66
2022/09/20 10:45:38;;;;;;;5.27;2.27;;;17.90;99.90;;;;;;4990525;28;21078;-67
2022/09/20 10:48:11;;;;;;;3.10;2.10;;;17.80;99.90;;;;;;4997382;28;20440;-68
2022/09/20 10:50:47;;;;;;;6.33;2.37;;;17.80;99.90;;;;;;4998563;28;20429;-69
2022/09/20 10:53:27;;;;;;;8.47;2.80;;;17.80;99.90;;;;;;4997140;28;20432;-67
2022/09/20 10:55:59;;;;;;;8.70;2.27;;;17.80;99.90;;;;;;4994362;28;20460;-68
2022/09/20 10:58:44;;;;;;;5.90;2.60;;;17.80;99.90;;;;;;5000096;28;20421;-68
2022/09/20 11:01:39;;;;;;;5.70;2.33;;;17.80;99.90;;;;;;4995700;28;20449;-68
2022/09/20 11:04:36;;;;;;;5.93;2.57;;;17.90;99.90;;;;;;4989887;28;20416;-69
2022/09/20 11:07:53;;;;;;;4.57;2.30;;;17.90;99.90;;;;;;4992666;28;20425;-69
2022/09/20 11:10:19;;;;;;;4.33;2.33;;;18.00;99.90;;;;;;4919374;29;21434;-69
2022/09/20 11:13:15;;;;;;;3.80;1.90;;;18.20;99.90;;;;;;4920357;29;20628;-68
2022/09/20 11:15:45;;;;;;;8.83;2.30;;;18.30;99.90;;;;;;4950345;28;20510;-68
2022/09/20 11:18:22;;;;;;;3.73;2.10;;;18.50;99.90;;;;;;4996960;28;20432;-68
2022/09/20 11:21:18;;;;;;;9.03;2.10;;;18.60;99.90;;;;;;4997730;28;20440;-68
2022/09/20 11:23:50;;;;;;;3.27;2.40;;;18.80;99.90;;;;;;4988439;28;20475;-67
2022/09/20 11:26:27;;;;;;;7.60;2.33;;;18.80;99.90;;;;;;4993592;28;20433;-67
2022/09/20 11:29:00;;;;;;;5.37;2.43;;;18.90;99.90;;;;;;4996623;28;20486;-67
2022/09/20 11:31:36;;;;;;;2.47;1.90;;;19.00;99.90;;;;;;4995634;28;20454;-67
2022/09/20 11:34:17;;;;;;;7.10;2.20;;;19.10;99.90;;;;;;4991775;28;20425;-67
2022/09/20 11:36:53;;;;;;;3.57;2.40;;;19.10;99.90;;;;;;4995435;28;20476;-68
2022/09/20 11:39:27;;;;;;;4.33;2.50;;;19.10;99.90;;;;;;4994761;28;21000;-68
2022/09/20 11:41:55;;;;;;;5.63;2.30;;;19.10;99.90;;;;;;4996307;28;20428;-67
2022/09/20 11:44:21;;;;;;;4.30;2.37;;;19.10;99.90;;;;;;4996199;28;21696;-67
2022/09/20 11:46:53;;;;;;;5.07;2.43;;;19.00;99.60;;;;;;4993332;28;20429;-68
2022/09/20 11:49:25;;;;;;;3.50;2.43;;;18.90;99.80;;;;;;4998916;28;20949;-67
2022/09/20 11:52:04;;;;;;;2.90;2.37;;;18.80;97.50;;;;;;4993656;28;20442;-68
2022/09/20 11:54:45;;;;;;;4.30;2.60;;;18.80;98.10;;;;;;4980126;28;20533;-67
2022/09/20 11:57:15;;;;;;;9.30;2.03;;;18.80;97.70;;;;;;4995787;28;20482;-68
2022/09/20 11:59:47;;;;;;;4.73;2.10;;;18.80;96.20;;;;;;4993723;28;20425;-67
2022/09/20 12:02:33;;;;;;;4.97;2.10;;;18.80;95.40;;;;;;4998668;28;20416;-69
2022/09/20 12:05:00;;;;;;;2.63;1.90;;;18.80;95.20;;;;;;4993131;28;20447;-66
2022/09/20 12:07:36;;;;;;;3.07;1.90;;;18.90;94.60;;;;;;4998247;28;20432;-67
2022/09/20 12:10:07;;;;;;;4.30;2.33;;;18.90;94.80;;;;;;4977609;28;20487;-68
2022/09/20 12:12:58;;;;;;;7.53;3.83;;;19.00;94.90;;;;;;4995400;28;20956;-68
2022/09/20 12:15:33;;;;;;;2.50;2.03;;;18.90;94.30;;;;;;4996129;28;20561;-68
2022/09/20 12:17:59;;;;;;;4.60;2.30;;;18.80;93.90;;;;;;4995520;28;20428;-67
2022/09/20 12:20:33;;;;;;;3.50;2.20;;;18.90;94.50;;;;;;4991635;28;20460;-68
2022/09/20 12:23:40;;;;;;;3.77;2.50;;;19.20;95.00;;;;;;4994600;28;20172;-68
2022/09/20 12:26:12;;;;;;;5.40;2.40;;;19.40;94.30;;;;;;4993935;28;20455;-67
2022/09/20 12:28:40;;;;;;;4.97;2.90;;;19.40;93.90;;;;;;4997746;28;21085;-67
2022/09/20 12:31:18;;;;;;;2.93;2.40;;;19.50;94.00;;;;;;4993289;28;20436;-68
2022/09/20 12:34:00;;;;;;;4.27;2.13;;;19.80;94.50;;;;;;4993523;28;20468;-68
2022/09/20 12:36:33;;;;;;;4.37;2.37;;;20.20;93.50;;;;;;4996118;28;21454;-69
2022/09/20 12:39:15;;;;;;;2.23;2.03;;;20.80;92.90;;;;;;4996448;28;20445;-69
2022/09/20 12:41:55;;;;;;;2.60;2.10;;;21.30;91.10;;;;;;4993314;28;20933;-68
2022/09/20 12:44:44;;;;;;;3.90;2.83;;;21.40;91.00;;;;;;4992950;28;20415;-69
2022/09/20 12:47:10;;;;;;;4.53;2.43;;;21.50;90.40;;;;;;4996073;28;20428;-69
2022/09/20 12:52:54;;;;;;;5.17;2.40;;;21.80;88.00;;;;;;4989560;28;20227;-68
2022/09/20 12:55:29;;;;;;;4.23;2.33;;;22.00;86.60;;;;;;4993815;28;20566;-68
2022/09/20 12:58:01;;;;;;;5.27;2.80;;;21.80;86.50;;;;;;4995735;28;21060;-67
2022/09/20 13:00:58;;;;;;;6.83;3.83;;;21.60;88.20;;;;;;4992186;28;20428;-68
2022/09/20 13:03:37;;;;;;;4.07;2.53;;;21.40;90.20;;;;;;4972564;28;20499;-68
2022/09/20 13:06:06;;;;;;;4.70;2.50;;;21.20;87.30;;;;;;4991373;28;20465;-69
2022/09/20 13:08:54;;;;;;;7.50;3.13;;;20.90;87.80;;;;;;4998120;28;20421;-68
2022/09/20 13:11:40;;;;;;;3.20;2.37;;;20.80;89.20;;;;;;4996582;28;20424;-68
2022/09/20 13:14:21;;;;;;;5.20;3.00;;;20.70;89.90;;;;;;4992319;28;20429;-68
2022/09/20 13:16:51;;;;;;;6.50;2.53;;;20.60;90.40;;;;;;4994934;28;20469;-68
2022/09/20 13:19:28;;;;;;;4.93;2.60;;;20.30;90.90;;;;;;4995858;28;20425;-69
2022/09/20 13:22:03;;;;;;;6.33;2.40;;;20.20;91.50;;;;;;4992824;28;20427;-69
2022/09/20 13:24:40;;;;;;;3.67;2.30;;;20.10;91.40;;;;;;4993905;28;20451;-68
2022/09/20 13:27:15;;;;;;;3.90;2.30;;;20.00;90.80;;;;;;4995162;28;20432;-69
2022/09/20 13:29:43;;;;;;;2.87;2.20;;;20.00;91.10;;;;;;4996195;28;20455;-68
2022/09/20 13:32:27;;;;;;;3.43;2.40;;;20.00;91.30;;;;;;4977894;28;20447;-68
2022/09/20 13:35:11;;;;;;;4.07;2.47;;;20.00;91.40;;;;;;4996523;28;20479;-68
2022/09/20 13:37:56;;;;;;;3.77;2.40;;;20.40;91.70;;;;;;4998597;28;20459;-68
2022/09/20 13:40:24;;;;;;;3.13;2.27;;;20.80;91.40;;;;;;4993048;28;20479;-67
2022/09/20 13:42:52;;;;;;;5.57;2.10;;;21.40;91.20;;;;;;4999653;28;20522;-67
2022/09/20 13:45:20;;;;;;;5.73;2.70;;;22.00;90.90;;;;;;4984913;28;20487;-67
2022/09/20 13:47:51;;;;;;;3.23;2.20;;;22.40;89.50;;;;;;4997737;28;20445;-68
2022/09/20 13:50:37;;;;;;;3.80;2.63;;;23.10;87.40;;;;;;4999956;28;20439;-68
2022/09/20 13:53:17;;;;;;;4.00;2.60;;;23.60;81.10;;;;;;5000995;28;20485;-68
2022/09/20 13:55:45;;;;;;;3.03;2.10;;;24.70;75.00;;;;;;4994816;28;20471;-68